Newburgh, Indiana
Current Conditions -  °F | °C
As of 9:54 PM on Wednesday 22 Oct 2014 (Local Time) from KEVV Reporting Station
Clear Clear  
Wind Chill: 45°   Ceiling: Unl
Heat Index: 45°   Visibility: 10mi
Dew Point: 41°   Wind: 0mph
Humidity: 86%   Direction: NA
Pressure: 30.25"   Gusts: NA
Location:  37.95°N, 87.4°W
Report Text: KEVV 230254Z 00000KT 10SM CLR 07/05 A3025 RMK AO2 SLP243 T00720050 53002
Loading
Personal Weather Stations






























Interactive Weather Map
Tropical Storm Tracking
New forecast layout! Learn more

10-Day Weather Forecast

Advertisements
Track Severe Weather on mobile